Bugul'Ma, Russia
Current Conditions -  °F | °C
As of 11:00 AM on Wednesday 22 Oct 2014 (Local Time) from UWKE Reporting Station
Overcast Overcast  
Wind Chill: 19°   Ceiling: 900
Heat Index: 32°   Visibility: 6mi
Dew Point: 28°   Wind: 25mph
Humidity: 87%   Direction: 240°WSW
Pressure: 29.32"   Gusts: 31mph
Location:  54.5°N, 52.87°E
Report Text: UWKE 220800Z 24011G14MPS 9999 OVC009CB M00/M02 Q0993 NOSIG RMKQFE728/0970 21290055
Loading
Personal Weather Stations






























Interactive Weather Map
Tropical Storm Tracking
New forecast layout! Learn more

10-Day Weather Forecast

Advertisements
Track Severe Weather on mobile